Time;durP1;ratioP1;P1;durP2;ratioP2;P2;SDS_P1;SDS_P2;PMS_P1;PMS_P2;Temp;Humidity;BMP_temperature;BMP_pressure;BME280_temperature;BME280_humidity;BME280_pressure;Samples;Min_cycle;Max_cycle;Signal;HPM_P1;HPM_P2
2022/06/19 00:02:10;;;;;;;;;;;;;;;26.38;41.52;101369.00;5046292;28;20095;-78
2022/06/19 00:04:38;;;;;;;6.13;4.43;;;;;;;26.47;41.63;101378.53;5045605;28;19925;-78
2022/06/19 00:07:05;;;;;;;7.07;4.28;;;;;;;26.42;41.44;101353.88;5028190;28;20053;-78
2022/06/19 00:09:32;;;;;;;4.72;4.05;;;;;;;26.47;40.23;101339.59;5044459;28;20287;-80
2022/06/19 00:11:58;;;;;;;4.60;4.05;;;;;;;26.51;41.22;101333.50;5044032;28;20495;-80
2022/06/19 00:14:26;;;;;;;4.22;3.72;;;;;;;26.67;39.59;101347.59;5044061;28;20056;-79
2022/06/19 00:16:53;;;;;;;3.75;3.45;;;;;;;26.60;39.67;101350.38;5044252;28;20068;-79
2022/06/19 00:19:20;;;;;;;4.90;3.38;;;;;;;26.56;39.55;101343.75;5046724;28;20052;-80
2022/06/19 00:21:47;;;;;;;4.10;3.70;;;;;;;26.55;40.34;101325.72;5047958;28;20549;-78
2022/06/19 00:24:14;;;;;;;8.32;4.00;;;;;;;26.74;40.89;101351.09;5049696;28;20049;-79
2022/06/19 00:26:40;;;;;;;4.07;3.78;;;;;;;26.74;40.29;101349.19;5049119;28;20072;-79
2022/06/19 00:29:07;;;;;;;4.43;3.92;;;;;;;26.69;40.03;101349.03;5047630;28;20580;-79
2022/06/19 00:31:34;;;;;;;5.50;4.10;;;;;;;26.71;39.24;101346.94;5048184;28;20049;-79
2022/06/19 00:34:02;;;;;;;3.92;3.55;;;;;;;25.76;39.91;101203.75;5047866;28;20128;-79
2022/06/19 00:36:29;;;;;;;5.38;4.00;;;;;;;26.55;40.41;101332.00;5048209;28;20088;-78
2022/06/19 00:38:56;;;;;;;7.13;3.70;;;;;;;26.38;39.96;101306.38;5050038;28;20198;-79
2022/06/19 00:41:24;;;;;;;4.35;3.95;;;;;;;26.58;39.68;101345.19;5052449;28;20366;-79
2022/06/19 00:43:56;;;;;;;4.13;3.70;;;;;;;26.31;39.71;101297.44;5054140;28;20129;-79
2022/06/19 00:46:50;;;;;;;4.43;3.50;;;;;;;26.44;39.83;101321.84;5056170;28;20061;-78
2022/06/19 00:49:36;;;;;;;3.80;3.42;;;;;;;26.44;39.82;101319.94;5051731;28;20060;-80
2022/06/19 00:52:12;;;;;;;3.38;3.08;;;;;;;26.16;40.05;101279.56;5050158;28;20534;-79
2022/06/19 00:54:48;;;;;;;4.38;4.07;;;;;;;26.43;39.47;101322.88;5032597;28;20458;-78
2022/06/19 00:57:21;;;;;;;;;;;;;;;26.34;39.66;101324.25;5030446;28;20407;-79
2022/06/19 01:00:00;;;;;;;4.65;3.83;;;;;;;26.43;40.71;101331.91;5033116;28;19948;-78
2022/06/19 01:02:28;;;;;;;3.63;3.33;;;;;;;26.34;39.77;101313.34;5035655;28;20065;-79
2022/06/19 01:04:56;;;;;;;7.20;3.90;;;;;;;26.29;40.62;101318.59;5037417;28;20076;-78
2022/06/19 01:07:24;;;;;;;3.90;3.53;;;;;;;26.28;39.87;101319.69;5032552;28;20080;-78
2022/06/19 01:09:51;;;;;;;3.83;3.28;;;;;;;26.12;39.87;101300.16;5027412;28;20053;-78
2022/06/19 01:12:22;;;;;;;4.90;3.63;;;;;;;26.09;39.76;101300.56;5027716;28;20052;-79
2022/06/19 01:14:52;;;;;;;3.90;3.28;;;;;;;26.11;39.71;101312.06;5027939;28;20061;-79
2022/06/19 01:17:19;;;;;;;4.05;3.60;;;;;;;25.91;40.43;101300.53;5027749;28;20052;-79
2022/06/19 01:19:47;;;;;;;3.42;3.10;;;;;;;25.64;40.13;101265.34;5028246;28;20068;-79
2022/06/19 01:22:35;;;;;;;3.63;3.33;;;;;;;25.98;39.87;101314.91;5027985;28;20053;-79
2022/06/19 01:25:11;;;;;;;3.35;3.05;;;;;;;25.76;40.22;101290.75;5028021;28;20057;-79
2022/06/19 01:30:30;;;;;;;3.60;3.30;;;;;;;25.83;39.90;101311.63;5030586;28;20530;-79
2022/06/19 01:32:59;;;;;;;4.10;3.17;;;;;;;25.70;39.93;101280.75;5034313;28;20050;-78
2022/06/19 01:35:28;;;;;;;6.55;3.83;;;;;;;25.82;39.63;101304.53;5044477;28;20057;-79
2022/06/19 01:38:07;;;;;;;3.25;2.90;;;;;;;25.33;39.80;101245.25;5046661;28;20057;-79
2022/06/19 01:40:34;;;;;;;5.00;3.33;;;;;;;25.25;40.00;101240.09;5069396;28;20033;-80
2022/06/19 01:43:03;;;;;;;3.55;3.10;;;;;;;25.53;39.91;101304.91;5073049;28;20037;-80
2022/06/19 01:45:30;;;;;;;4.85;2.85;;;;;;;25.21;39.88;101270.63;5061122;28;20529;-79
2022/06/19 01:47:56;;;;;;;7.57;3.13;;;;;;;25.31;40.01;101304.41;5052818;28;20122;-78
2022/06/19 01:50:25;;;;;;;4.43;2.80;;;;;;;25.27;39.75;101305.94;5050957;28;20110;-78
2022/06/19 01:53:00;;;;;;;3.53;3.13;;;;;;;25.16;39.94;101296.53;5040539;28;20057;-78
2022/06/19 01:55:28;;;;;;;3.33;3.03;;;;;;;25.27;39.77;101297.78;5026492;28;20089;-78
2022/06/19 01:57:57;;;;;;;3.00;2.80;;;;;;;25.18;39.81;101271.91;5026385;28;20053;-79
2022/06/19 02:00:27;;;;;;;7.30;2.97;;;;;;;25.31;40.01;101293.56;5027838;28;20530;-79
2022/06/19 02:03:13;;;;;;;3.47;3.17;;;;;;;25.32;39.80;101289.81;5025550;28;20049;-78
2022/06/19 02:05:41;;;;;;;3.33;3.05;;;;;;;25.34;39.64;101282.28;5025347;28;20487;-79
2022/06/19 02:08:09;;;;;;;10.75;3.10;;;;;;;25.24;39.55;101273.72;5025915;28;20484;-79
2022/06/19 02:10:40;;;;;;;2.95;2.75;;;;;;;25.26;39.58;101284.41;5024684;28;20083;-79
2022/06/19 02:13:09;;;;;;;3.00;2.70;;;;;;;25.29;39.51;101279.38;5026001;28;20061;-79
2022/06/19 02:15:36;;;;;;;2.60;2.40;;;;;;;25.13;39.35;101258.09;5026150;28;20053;-79
2022/06/19 02:18:12;;;;;;;3.03;2.53;;;;;;;25.21;39.08;101266.03;5025835;28;20083;-79
2022/06/19 02:20:39;;;;;;;3.78;2.88;;;;;;;25.22;39.19;101275.84;5025208;28;20084;-78
2022/06/19 02:23:07;;;;;;;3.13;2.78;;;;;;;25.00;39.24;101239.13;5024931;28;20395;-78
2022/06/19 02:25:39;;;;;;;4.88;3.10;;;;;;;24.64;39.52;101192.53;5025242;28;20041;-77
2022/06/19 02:28:07;;;;;;;3.25;2.70;;;;;;;24.90;39.56;101239.59;5031006;28;20042;-79
2022/06/19 02:30:35;;;;;;;2.95;2.47;;;;;;;25.04;39.57;101265.66;5034289;28;20057;-79
2022/06/19 02:33:04;;;;;;;4.35;3.10;;;;;;;24.91;39.75;101260.28;5037806;28;20100;-80
2022/06/19 02:35:31;;;;;;;2.80;2.60;;;;;;;24.68;39.67;101239.91;5043746;28;20049;-80
2022/06/19 02:37:58;;;;;;;4.50;2.92;;;;;;;24.81;39.75;101265.31;5047645;28;20051;-81
2022/06/19 02:40:34;;;;;;;2.75;2.55;;;;;;;24.77;39.79;101283.13;5061816;28;20041;-79
2022/06/19 02:43:01;;;;;;;3.10;2.70;;;;;;;24.62;39.87;101262.47;5050813;28;20397;-78
2022/06/19 02:45:32;;;;;;;2.80;2.50;;;;;;;24.65;39.55;101277.50;5046048;28;20056;-79
2022/06/19 02:48:00;;;;;;;3.03;2.33;;;;;;;24.56;39.54;101274.19;5046816;28;20045;-78
2022/06/19 02:50:30;;;;;;;3.47;2.45;;;;;;;24.38;39.86;101249.56;5045142;28;20435;-79
2022/06/19 02:52:57;;;;;;;3.17;2.60;;;;;;;23.97;39.89;101183.69;5038994;28;20156;-79
2022/06/19 02:55:24;;;;;;;4.20;2.53;;;;;;;24.58;40.09;101282.94;5024930;28;20075;-79
2022/06/19 02:57:52;;;;;;;3.47;3.17;;;;;;;24.62;40.19;101280.66;5024503;28;20054;-79
2022/06/19 03:00:21;;;;;;;3.08;2.78;;;;;;;24.71;40.20;101279.34;5025004;28;20045;-78
2022/06/19 03:02:56;;;;;;;7.40;2.63;;;;;;;24.79;40.41;101267.44;5024939;28;20499;-79
2022/06/19 03:05:25;;;;;;;5.53;2.60;;;;;;;24.92;42.56;101246.47;5024557;28;20422;-78
2022/06/19 03:07:52;;;;;;;5.60;2.80;;;;;;;24.90;40.55;101236.88;5025765;28;20446;-78
2022/06/19 03:10:19;;;;;;;4.15;2.75;;;;;;;25.10;40.12;101258.53;5023877;28;20045;-78
2022/06/19 03:12:46;;;;;;;3.13;2.63;;;;;;;25.15;39.77;101256.00;5023755;28;20053;-78
2022/06/19 03:15:15;;;;;;;2.72;2.22;;;;;;;25.12;39.31;101261.84;5024611;28;20060;-77
2022/06/19 03:17:42;;;;;;;5.18;2.70;;;;;;;25.00;39.54;101239.13;5025421;28;20049;-78
2022/06/19 03:20:14;;;;;;;2.85;2.40;;;;;;;25.04;39.81;101243.09;5025105;28;20483;-78
2022/06/19 03:22:41;;;;;;;5.15;2.65;;;;;;;25.11;39.48;101257.47;5025133;28;20409;-78
2022/06/19 03:25:08;;;;;;;2.80;2.50;;;;;;;25.15;39.47;101256.00;5026106;28;20410;-78
2022/06/19 03:27:35;;;;;;;3.55;2.60;;;;;;;25.05;38.85;101247.47;5023687;28;20057;-79
2022/06/19 03:30:02;;;;;;;2.28;2.03;;;;;;;24.80;39.21;101215.63;5023703;28;20233;-79
2022/06/19 03:32:29;;;;;;;2.97;2.25;;;;;;;25.03;39.37;101264.00;5023628;28;20464;-80
2022/06/19 03:34:56;;;;;;;3.78;2.65;;;;;;;24.81;39.49;101239.03;5023323;28;20484;-78
2022/06/19 03:37:23;;;;;;;3.03;2.80;;;;;;;24.16;39.62;101162.19;5024441;28;20432;-79
2022/06/19 03:39:50;;;;;;;3.97;2.67;;;;;;;24.48;39.47;101231.81;5036138;28;20353;-79
2022/06/19 03:42:17;;;;;;;3.50;2.30;;;;;;;24.52;39.65;101256.66;5044793;28;20138;-79
2022/06/19 03:44:44;;;;;;;2.75;2.42;;;;;;;24.31;39.94;101241.44;5044638;28;20044;-79
2022/06/19 03:47:15;;;;;;;5.57;2.20;;;;;;;24.37;40.43;101242.47;5044775;28;20487;-78
2022/06/19 03:49:42;;;;;;;5.50;2.47;;;;;;;24.33;40.67;101244.78;5044614;28;20495;-78
2022/06/19 03:52:09;;;;;;;2.58;2.25;;;;;;;24.35;40.88;101250.84;5043855;28;20106;-79
2022/06/19 03:54:36;;;;;;;4.13;2.17;;;;;;;24.19;40.46;101229.56;5027497;28;20503;-79
2022/06/19 03:57:03;;;;;;;4.10;2.03;;;;;;;24.26;40.90;101241.25;5028716;28;20049;-79
2022/06/19 03:59:30;;;;;;;18.30;2.88;;;;;;;24.09;40.95;101228.13;5028351;28;20057;-79
2022/06/19 04:01:57;;;;;;;6.85;2.42;;;;;;;24.17;41.21;101242.50;5027851;28;20136;-77
2022/06/19 04:04:24;;;;;;;4.75;2.42;;;;;;;24.15;41.19;101252.72;5028528;28;20053;-79
2022/06/19 04:06:50;;;;;;;2.70;2.38;;;;;;;24.09;41.49;101252.53;5028423;28;20041;-79
2022/06/19 04:09:17;;;;;;;3.55;2.40;;;;;;;23.77;41.67;101207.28;5028907;28;20084;-78
2022/06/19 04:11:44;;;;;;;3.42;2.38;;;;;;;24.00;41.21;101253.78;5028045;28;20049;-79
2022/06/19 04:14:12;;;;;;;4.57;2.72;;;;;;;23.94;41.53;101243.78;5028412;28;20119;-78
2022/06/19 04:16:39;;;;;;;2.53;2.30;;;;;;;24.03;42.09;101260.66;5027951;28;20050;-79
2022/06/19 04:19:07;;;;;;;3.83;2.70;;;;;;;24.03;42.44;101269.66;5029434;28;20053;-79
2022/06/19 04:21:40;;;;;;;4.95;2.00;;;;;;;23.92;42.42;101250.47;5028163;28;20419;-79
2022/06/19 04:24:07;;;;;;;2.55;2.30;;;;;;;24.04;42.67;101268.59;5028077;28;20296;-78
2022/06/19 04:26:36;;;;;;;5.43;2.25;;;;;;;24.07;42.67;101264.63;5028062;28;20081;-78
2022/06/19 04:29:04;;;;;;;3.78;2.50;;;;;;;24.10;43.86;101269.63;5027990;28;20446;-78
2022/06/19 04:31:31;;;;;;;5.22;3.03;;;;;;;23.79;43.80;101216.06;5027544;28;20045;-78
2022/06/19 04:33:58;;;;;;;4.95;3.42;;;;;;;24.15;44.93;101266.28;5029026;28;20507;-79
2022/06/19 04:36:28;;;;;;;11.88;3.72;;;;;;;24.16;44.68;101268.81;5028917;28;20045;-79
2022/06/19 04:38:56;;;;;;;7.72;3.45;;;;;;;24.23;45.18;101263.38;5033573;28;20053;-79
2022/06/19 04:41:38;;;;;;;7.50;3.97;;;;;;;24.29;45.76;101263.34;5051828;28;20114;-78
2022/06/19 04:44:07;;;;;;;3.75;3.45;;;;;;;24.41;45.15;101251.84;5049017;28;20103;-78
2022/06/19 04:46:35;;;;;;;3.40;3.10;;;;;;;24.26;44.96;101205.97;5047853;28;20068;-78
2022/06/19 04:49:02;;;;;;;3.70;3.13;;;;;;;23.89;44.43;101138.66;5047500;28;20059;-79
2022/06/19 04:51:35;;;;;;;2.95;2.63;;;;;;;24.72;43.19;101235.72;5047501;28;20045;-79
2022/06/19 04:54:02;;;;;;;3.88;2.95;;;;;;;24.58;42.40;101195.25;5031095;28;20309;-79
2022/06/19 04:56:29;;;;;;;3.80;3.03;;;;;;;24.86;42.40;101233.78;5027354;28;20080;-78
2022/06/19 04:58:57;;;;;;;5.72;3.28;;;;;;;25.04;43.42;101256.69;5025120;28;20474;-79
2022/06/19 05:01:30;;;;;;;4.85;2.35;;;;;;;24.99;43.68;101256.50;5043861;28;20365;-79
2022/06/19 05:03:59;;;;;;;2.65;2.40;;;;;;;24.87;43.82;101248.19;5045099;28;20222;-79
2022/06/19 05:06:27;;;;;;;5.20;2.58;;;;;;;24.68;43.89;101220.06;5044389;28;20517;-79
2022/06/19 05:08:55;;;;;;;5.82;2.83;;;;;;;24.88;44.10;101247.97;5045065;28;20057;-80
2022/06/19 05:11:23;;;;;;;4.00;2.55;;;;;;;25.07;43.42;101265.22;5045562;28;20079;-78
2022/06/19 05:13:50;;;;;;;2.58;1.60;;;;;;;25.17;41.22;101262.06;5045649;28;20057;-79
2022/06/19 05:16:19;;;;;;;3.70;2.28;;;;;;;25.27;41.08;101267.88;5028867;28;20118;-79
2022/06/19 05:18:47;;;;;;;4.30;2.58;;;;;;;24.72;42.19;101158.88;5061393;28;20053;-80
2022/06/19 05:21:21;;;;;;;2.35;2.15;;;;;;;24.40;42.89;101100.97;5045004;28;20450;-78
2022/06/19 05:23:48;;;;;;;2.70;1.92;;;;;;;25.10;43.36;101206.94;5044880;28;20040;-78
2022/06/19 05:26:21;;;;;;;4.93;2.25;;;;;;;25.50;43.29;101269.19;5044883;28;20053;-78
2022/06/19 05:28:50;;;;;;;2.05;1.65;;;;;;;25.54;42.67;101265.00;5044562;28;20142;-79
2022/06/19 05:31:17;;;;;;;6.07;1.85;;;;;;;24.87;41.93;101145.00;5044503;28;20158;-78
2022/06/19 05:33:45;;;;;;;1.88;1.63;;;;;;;25.70;41.36;101275.31;5045157;28;20049;-79
2022/06/19 05:36:12;;;;;;;1.77;1.52;;;;;;;25.41;41.44;101202.56;5038314;28;20049;-83
2022/06/19 05:38:39;;;;;;;3.55;2.28;;;;;;;25.94;40.64;101281.03;5043606;28;20045;-79
2022/06/19 05:41:06;;;;;;;7.63;1.63;;;;;;;26.07;40.26;101280.94;5026593;28;20049;-80
2022/06/19 05:43:34;;;;;;;4.78;1.60;;;;;;;26.13;39.45;101269.16;5024972;28;20496;-77
2022/06/19 05:46:04;;;;;;;3.55;1.60;;;;;;;26.32;39.82;101266.47;5025006;28;20053;-78
2022/06/19 05:48:34;;;;;;;3.78;1.58;;;;;;;26.50;39.40;101290.97;5025841;28;20134;-79
2022/06/19 05:51:11;;;;;;;3.47;1.85;;;;;;;26.59;38.77;101281.50;5025907;28;20053;-78
2022/06/19 05:53:44;;;;;;;4.80;2.00;;;;;;;26.42;39.00;101239.56;5037565;28;20065;-78
2022/06/19 05:56:12;;;;;;;6.50;1.95;;;;;;;26.78;38.39;101281.50;5045007;28;20138;-79
2022/06/19 05:58:39;;;;;;;2.17;1.52;;;;;;;26.85;38.63;101277.63;5043691;28;20041;-79
2022/06/19 06:01:06;;;;;;;3.67;2.00;;;;;;;26.94;38.71;101285.47;5045507;28;20057;-79
2022/06/19 06:03:33;;;;;;;2.53;2.10;;;;;;;27.07;38.23;101286.16;5025507;28;20504;-77
2022/06/19 06:06:01;;;;;;;1.65;1.52;;;;;;;26.87;37.51;101244.72;5024082;28;20255;-79
2022/06/19 06:08:28;;;;;;;2.38;1.90;;;;;;;27.01;38.28;101273.44;5024475;28;20061;-80
2022/06/19 06:10:55;;;;;;;3.35;1.67;;;;;;;27.15;38.21;101278.72;5024116;28;20057;-79
2022/06/19 06:13:22;;;;;;;3.60;1.58;;;;;;;26.86;38.82;101221.25;5024334;28;20434;-78
2022/06/19 06:15:49;;;;;;;1.42;1.33;;;;;;;26.86;38.30;101221.25;5028440;28;20146;-79
2022/06/19 06:18:17;;;;;;;2.95;1.63;;;;;;;27.24;38.81;101286.38;5044075;28;20049;-79
2022/06/19 06:20:44;;;;;;;4.90;1.73;;;;;;;27.28;38.32;101289.47;5047731;28;20056;-78
2022/06/19 06:23:12;;;;;;;2.60;1.65;;;;;;;27.20;37.62;101287.06;5045501;28;20048;-79
2022/06/19 06:25:40;;;;;;;5.93;2.08;;;;;;;27.40;37.50;101301.25;5046307;28;20130;-79
2022/06/19 06:28:13;;;;;;;2.13;1.75;;;;;;;27.44;38.53;101307.09;5044747;28;20122;-79
2022/06/19 06:30:39;;;;;;;3.80;1.80;;;;;;;27.19;38.41;101255.44;5046377;28;20518;-79
2022/06/19 06:33:06;;;;;;;2.22;1.73;;;;;;;27.57;38.90;101298.69;5043935;28;20049;-79
2022/06/19 06:35:34;;;;;;;1.73;1.63;;;;;;;27.80;40.74;101311.56;5045143;28;20203;-79
2022/06/19 06:38:01;;;;;;;2.33;1.98;;;;;;;27.81;39.33;101313.22;5045791;28;20106;-79
2022/06/19 06:40:28;;;;;;;2.38;1.98;;;;;;;27.95;40.15;101307.59;5029134;28;20440;-80
2022/06/19 06:42:55;;;;;;;2.80;1.90;;;;;;;28.10;38.96;101305.25;5027942;28;20080;-77
2022/06/19 06:45:21;;;;;;;4.68;1.95;;;;;;;27.81;38.55;101285.94;5025832;28;20436;-79
2022/06/19 06:47:48;;;;;;;2.38;1.95;;;;;;;27.65;38.88;101264.81;5023245;28;20053;-79
2022/06/19 06:50:15;;;;;;;2.85;1.98;;;;;;;27.81;40.52;101268.75;5022994;28;20053;-78
2022/06/19 06:52:42;;;;;;;2.35;1.70;;;;;;;27.86;40.06;101277.91;5026539;28;20103;-77
2022/06/19 06:55:09;;;;;;;3.03;1.90;;;;;;;28.06;40.85;101296.72;5041508;28;20427;-78
2022/06/19 06:57:36;;;;;;;3.78;2.10;;;;;;;28.31;40.63;101296.47;5042288;28;20049;-80
2022/06/19 07:00:07;;;;;;;5.78;1.92;;;;;;;28.41;41.60;101289.59;5041869;28;20052;-79
2022/06/19 07:02:34;;;;;;;4.20;2.30;;;;;;;28.23;37.16;101291.38;5058952;28;20458;-79
2022/06/19 07:05:00;;;;;;;4.53;2.08;;;;;;;28.20;37.28;101289.09;5042867;28;20506;-79
2022/06/19 07:07:27;;;;;;;2.30;2.10;;;;;;;28.01;38.92;101257.53;5032303;28;20477;-80
2022/06/19 07:09:54;;;;;;;7.90;2.85;;;;;;;28.43;40.42;101282.00;5025161;28;20053;-80
2022/06/19 07:12:21;;;;;;;4.65;2.10;;;;;;;28.32;40.17;101287.19;5024677;28;20130;-79
2022/06/19 07:14:57;;;;;;;3.63;1.80;;;;;;;28.49;40.03;101281.06;5025055;28;20050;-79
2022/06/19 07:17:24;;;;;;;4.50;2.10;;;;;;;27.56;41.26;101102.59;5024741;28;20127;-79
2022/06/19 07:19:51;;;;;;;2.20;2.00;;;;;;;28.47;42.24;101234.88;5024651;28;20148;-80
2022/06/19 07:22:18;;;;;;;3.13;1.80;;;;;;;28.49;40.12;101275.59;5024939;28;20099;-80
2022/06/19 07:24:48;;;;;;;3.65;2.20;;;;;;;28.33;41.17;101250.66;5024892;28;20053;-78
2022/06/19 07:27:15;;;;;;;3.83;2.05;;;;;;;28.76;40.02;101259.50;5026303;28;20507;-79
2022/06/19 07:29:44;;;;;;;2.72;1.83;;;;;;;28.52;41.38;101253.25;5028783;28;20059;-80
2022/06/19 07:32:12;;;;;;;4.82;2.78;;;;;;;28.82;42.64;101255.00;5044385;28;20056;-81
2022/06/19 07:34:41;;;;;;;4.50;2.10;;;;;;;28.65;41.24;101258.47;5044911;28;20049;-79
2022/06/19 07:37:07;;;;;;;1.98;1.77;;;;;;;28.71;43.44;101235.63;5044645;28;20041;-79
2022/06/19 07:39:35;;;;;;;2.78;1.98;;;;;;;28.59;40.11;101248.50;5033856;28;20127;-78
2022/06/19 07:42:05;;;;;;;3.05;1.90;;;;;;;28.42;40.73;101206.59;5023626;28;20049;-79
2022/06/19 07:44:31;;;;;;;2.20;2.00;;;;;;;28.25;39.64;101179.19;5023989;28;20654;-80
2022/06/19 07:52:29;;;;;;;3.92;2.22;;;;;;;28.71;39.22;101213.78;5029217;28;20068;-79
2022/06/19 07:54:56;;;;;;;2.47;1.90;;;;;;;28.98;42.33;101237.81;5044772;28;20076;-80
2022/06/19 07:57:25;;;;;;;6.70;2.10;;;;;;;29.14;42.22;101250.72;5044535;28;20072;-79
2022/06/19 07:59:53;;;;;;;5.55;2.22;;;;;;;29.23;42.29;101247.63;5046337;28;20049;-79
2022/06/19 08:02:20;;;;;;;3.72;2.28;;;;;;;28.92;38.77;101238.78;5044750;28;20245;-79
2022/06/19 08:04:46;;;;;;;3.28;2.53;;;;;;;28.63;40.09;101195.03;5045161;28;20297;-79
2022/06/19 08:07:15;;;;;;;6.40;3.28;;;;;;;29.09;41.89;101211.53;5044749;28;20041;-78
2022/06/19 08:09:42;;;;;;;3.40;2.47;;;;;;;28.91;38.16;101231.66;5044295;28;20441;-78
2022/06/19 08:12:10;;;;;;;3.05;2.20;;;;;;;29.11;41.67;101228.53;5045851;28;20045;-79
2022/06/19 08:14:37;;;;;;;4.32;2.17;;;;;;;28.67;39.63;101160.72;5044517;28;20151;-79
2022/06/19 08:17:05;;;;;;;4.63;2.33;;;;;;;29.05;42.26;101233.03;5044753;28;20495;-79
2022/06/19 08:19:32;;;;;;;4.25;2.30;;;;;;;29.07;42.75;101208.22;5044415;28;20306;-79
2022/06/19 08:21:58;;;;;;;5.03;2.35;;;;;;;29.09;40.38;101220.56;5044684;28;20053;-79
2022/06/19 08:24:25;;;;;;;3.08;2.40;;;;;;;28.97;42.43;101195.16;5044314;28;20048;-78
2022/06/19 08:27:13;;;;;;;3.47;2.22;;;;;;;29.16;42.41;101247.75;5043905;28;20064;-79
2022/06/19 08:29:40;;;;;;;10.52;2.83;;;;;;;28.61;41.38;101191.72;5045776;28;20372;-78
2022/06/19 08:32:07;;;;;;;2.17;2.05;;;;;;;28.85;40.94;101232.63;5046204;28;20052;-79
2022/06/19 08:34:35;;;;;;;8.25;2.90;;;;;;;28.83;40.69;101230.13;5047179;28;20056;-79
2022/06/19 08:37:05;;;;;;;3.63;2.20;;;;;;;29.19;42.39;101250.00;5046979;28;20053;-79
2022/06/19 08:39:32;;;;;;;4.65;2.95;;;;;;;29.34;41.46;101247.53;5042279;28;20112;-79
2022/06/19 08:42:05;;;;;;;5.50;3.38;;;;;;;29.23;39.81;101253.91;5034406;28;20057;-78
2022/06/19 08:45:02;;;;;;;5.63;2.03;;;;;;;29.25;41.17;101245.44;5031627;28;20045;-80
2022/06/19 08:47:57;;;;;;;2.58;2.17;;;;;;;29.32;42.33;101236.03;5029734;28;20491;-78
2022/06/19 08:50:35;;;;;;;4.57;2.58;;;;;;;29.22;42.51;101252.22;5031133;28;20049;-81
2022/06/19 08:53:20;;;;;;;3.78;2.55;;;;;;;29.23;43.08;101248.44;5038025;28;20049;-80
2022/06/19 08:56:01;;;;;;;2.78;2.50;;;;;;;29.08;43.32;101246.25;5049058;28;20238;-79
2022/06/19 08:58:43;;;;;;;8.52;2.92;;;;;;;28.77;43.23;101199.16;5047520;28;20045;-79
2022/06/19 09:01:28;;;;;;;3.50;2.72;;;;;;;28.93;41.23;101248.63;5047540;28;20453;-79
2022/06/19 09:07:33;;;;;;;4.43;2.35;;;;;;;29.13;42.49;101253.72;5048671;28;20048;-78
2022/06/19 09:10:03;;;;;;;3.85;2.65;;;;;;;29.08;43.54;101257.19;5048439;28;20667;-79
2022/06/19 09:12:39;;;;;;;3.53;2.45;;;;;;;29.15;42.81;101240.63;5047611;28;20049;-78
2022/06/19 09:15:14;;;;;;;3.60;2.70;;;;;;;29.01;43.45;101239.22;5047425;28;20114;-77
2022/06/19 09:18:03;;;;;;;4.28;2.90;;;;;;;28.94;43.41;101240.19;5048282;28;20486;-78
2022/06/19 09:20:43;;;;;;;3.85;2.45;;;;;;;28.80;43.72;101227.91;5046825;28;20052;-78
2022/06/19 09:23:55;;;;;;;5.05;3.50;;;;;;;28.71;43.90;101234.81;5047115;28;20142;-77
2022/06/19 09:26:29;;;;;;;4.95;3.58;;;;;;;28.73;43.57;101241.69;5008831;28;20058;-78
2022/06/19 09:29:01;;;;;;;3.85;3.15;;;;;;;28.70;43.77;101231.25;5008425;28;20843;-78
2022/06/19 09:31:43;;;;;;;3.80;3.47;;;;;;;28.92;41.66;101228.69;5037801;28;20049;-79
2022/06/19 09:34:32;;;;;;;3.55;3.00;;;;;;;28.90;43.38;101213.59;5048458;28;20045;-79
2022/06/19 09:37:10;;;;;;;6.78;3.47;;;;;;;28.55;43.33;101146.28;5046596;28;20057;-79
2022/06/19 09:39:50;;;;;;;4.10;3.33;;;;;;;29.11;42.64;101234.81;5037299;28;20053;-79
2022/06/19 09:42:26;;;;;;;4.75;3.50;;;;;;;29.09;42.19;101236.97;5026687;28;20058;-79
2022/06/19 09:45:16;;;;;;;3.22;2.97;;;;;;;29.10;43.87;101232.31;5026620;28;20126;-81
2022/06/19 09:48:10;;;;;;;4.75;4.05;;;;;;;29.00;42.44;101222.00;5026501;28;20519;-79
2022/06/19 09:50:46;;;;;;;4.68;3.60;;;;;;;28.91;42.75;101209.78;5026404;28;20049;-79
2022/06/19 09:53:36;;;;;;;4.20;3.90;;;;;;;28.70;41.93;101189.44;5035782;28;20174;-80
2022/06/19 09:57:09;;;;;;;3.97;3.60;;;;;;;28.39;41.41;101155.19;5046242;28;20049;-81
2022/06/19 09:59:41;;;;;;;3.90;3.60;;;;;;;28.66;43.43;101145.38;5041956;28;20213;-80
2022/06/19 10:02:23;;;;;;;4.10;3.35;;;;;;;29.22;41.55;101221.34;5043751;28;20087;-79
2022/06/19 10:05:05;;;;;;;4.80;4.18;;;;;;;29.47;40.54;101205.38;5043374;28;20060;-78
2022/06/19 10:07:37;;;;;;;4.13;3.83;;;;;;;29.45;42.10;101217.66;5046234;28;20045;-81
2022/06/19 10:10:28;;;;;;;3.70;3.50;;;;;;;29.19;42.99;101209.81;5047601;28;20072;-80
2022/06/19 10:12:57;;;;;;;4.20;3.65;;;;;;;29.34;43.08;101216.63;5046223;28;20052;-80
2022/06/19 10:15:34;;;;;;;4.15;3.85;;;;;;;29.21;42.21;101206.00;5046142;28;20076;-80
2022/06/19 10:18:12;;;;;;;4.30;3.85;;;;;;;29.37;42.55;101211.50;5046340;28;20053;-79
2022/06/19 10:21:09;;;;;;;4.45;4.15;;;;;;;29.59;41.48;101203.41;5045631;28;20052;-79
2022/06/19 10:24:01;;;;;;;5.68;5.03;;;;;;;29.43;40.30;101182.34;5045783;28;20045;-81
2022/06/19 10:26:48;;;;;;;5.72;3.50;;;;;;;29.66;42.32;101194.19;5047080;28;20556;-81
2022/06/19 10:29:38;;;;;;;5.03;3.78;;;;;;;29.53;42.03;101187.16;5045787;28;20549;-81
2022/06/19 10:32:13;;;;;;;4.80;4.03;;;;;;;29.44;41.70;101183.97;5046651;28;20511;-79
2022/06/19 10:34:46;;;;;;;5.30;4.80;;;;;;;29.40;41.29;101210.19;5045605;28;20060;-80
2022/06/19 10:37:50;;;;;;;4.75;4.32;;;;;;;29.33;41.88;101209.50;5046428;28;20411;-80
2022/06/19 10:40:44;;;;;;;5.72;5.15;;;;;;;29.40;40.90;101141.81;5037885;28;20045;-79
2022/06/19 10:43:51;;;;;;;5.65;4.95;;;;;;;29.76;41.53;101188.88;5031750;28;20122;-77
2022/06/19 10:46:17;;;;;;;4.65;4.25;;;;;;;29.61;41.74;101194.91;5020986;28;20057;-79
2022/06/19 10:49:01;;;;;;;5.00;4.63;;;;;;;30.01;41.11;101210.34;5025216;28;20356;-80
2022/06/19 10:51:38;;;;;;;4.93;4.53;;;;;;;29.97;40.52;101209.19;5025800;28;20060;-79
2022/06/19 10:54:16;;;;;;;5.97;5.35;;;;;;;30.37;40.07;101200.75;5026674;28;20475;-82
2022/06/19 10:56:57;;;;;;;4.53;4.22;;;;;;;30.49;40.34;101191.56;5026710;28;20057;-81
2022/06/19 10:59:25;;;;;;;5.38;4.95;;;;;;;30.14;40.21;101154.41;5032148;28;20042;-81
2022/06/19 11:05:11;;;;;;;5.47;4.88;;;;;;;29.85;42.05;101173.72;5018747;28;20048;-80
2022/06/19 11:07:39;;;;;;;6.00;5.40;;;;;;;29.60;42.32;101144.84;5041779;28;20057;-81
2022/06/19 11:10:16;;;;;;;4.88;4.47;;;;;;;29.67;42.89;101161.13;5041707;28;20060;-80
2022/06/19 11:12:46;;;;;;;11.25;5.80;;;;;;;29.59;41.34;101162.38;5042948;28;20053;-79
2022/06/19 11:15:33;;;;;;;7.32;5.53;;;;;;;29.74;41.50;101155.50;5028540;28;20046;-80
2022/06/19 11:18:13;;;;;;;5.20;4.88;;;;;;;30.09;38.94;101144.22;5033349;28;20045;-80
2022/06/19 11:21:06;;;;;;;6.47;5.72;;;;;;;30.21;40.44;101153.13;5028583;28;20119;-80
2022/06/19 11:23:38;;;;;;;6.95;6.25;;;;;;;30.35;40.37;101150.88;5041725;28;20061;-80
2022/06/19 11:26:10;;;;;;;6.50;5.75;;;;;;;30.41;40.44;101155.31;5041665;28;20050;-81
2022/06/19 11:28:58;;;;;;;6.38;5.60;;;;;;;30.29;40.80;101151.06;5041623;28;20065;-80
2022/06/19 11:31:32;;;;;;;6.55;6.05;;;;;;;30.14;41.05;101132.50;5025191;28;20061;-81
2022/06/19 11:37:22;;;;;;;8.73;5.80;;;;;;;30.10;41.07;101145.03;5026081;28;20064;-80
2022/06/19 11:39:58;;;;;;;7.72;5.43;;;;;;;30.00;41.15;101115.63;5048917;28;20057;-80
2022/06/19 11:42:26;;;;;;;5.13;4.70;;;;;;;30.13;41.15;101133.59;5025291;28;20059;-81
2022/06/19 11:45:21;;;;;;;5.68;5.05;;;;;;;30.31;41.06;101132.47;5024990;28;20451;-80
2022/06/19 11:47:56;;;;;;;5.97;5.47;;;;;;;30.47;40.58;101128.84;5025602;28;20050;-80
2022/06/19 11:50:31;;;;;;;5.43;5.03;;;;;;;30.39;40.39;101130.13;5026001;28;20053;-79
2022/06/19 11:53:09;;;;;;;6.00;5.07;;;;;;;30.27;40.59;101136.78;5033861;28;20048;-78
2022/06/19 11:55:39;;;;;;;6.60;5.60;;;;;;;30.31;41.14;101116.03;5045069;28;20103;-80
2022/06/19 11:58:37;;;;;;;7.20;5.53;;;;;;;30.23;41.03;101123.59;5061406;28;20091;-78
2022/06/19 12:01:15;;;;;;;7.93;5.20;;;;;;;30.12;41.14;101119.06;5044574;28;20092;-81
2022/06/19 12:03:55;;;;;;;6.60;5.53;;;;;;;29.98;41.71;101124.09;5046096;28;20574;-79
2022/06/19 12:06:44;;;;;;;6.03;5.53;;;;;;;30.01;41.74;101093.47;5061668;28;20051;-79
2022/06/19 12:09:27;;;;;;;6.63;5.38;;;;;;;29.81;41.13;101060.38;5044722;28;20084;-78